Flight Track Log - Related Links

Times and Time Zones

All times are in EDT time to prevent confusion due to time zone crossing. See the ASQ6041 flight status page for this flight to view local times or setup timezone preferences in your user account.

Time Position Orientation Groundspeed Altitude Reporting Facility
EDT Latitude Longitude Course Direction KTS MPH feet Rate Location/Type
Wed 07:03:27 AM 33.5531 -86.7783 268° West 167 192 1,400  Level Atlanta Center
Wed 07:04:29 AM 33.5517 -86.8406 268° West 237 273 3,700 2,213 Climbing Atlanta Center
Wed 07:05:29 AM 33.6156 -86.8775 334° Northwest 248 285 5,900 2,350 Climbing Atlanta Center
Wed 07:06:29 AM 33.6878 -86.9122 338° Northwest 258 297 8,400 2,300 Climbing Atlanta Center
Wed 07:07:29 AM 33.7533 -86.9644 326° Northwest 270 311 10,500 1,800 Climbing Atlanta Center
Wed 07:08:29 AM 33.8250 -87.0219 326° Northwest 282 325 12,000 1,464 Climbing Atlanta Center
Wed 07:10:17 AM 33.9681 -87.1339 327° Northwest 328 377 14,600 1,429 Climbing Memphis Center
Wed 07:11:17 AM 34.0492 -87.2011 326° Northwest 342 394 16,000 1,400 Climbing Memphis Center
Wed 07:12:17 AM 34.1300 -87.2633 328° Northwest 347 399 17,400 1,300 Climbing Memphis Center
Wed 07:13:17 AM 34.2086 -87.3258 327° Northwest 360 414 18,600 1,350 Climbing Memphis Center
Wed 07:14:17 AM 34.3000 -87.3978 327° Northwest 360 414 20,100 1,450 Climbing Memphis Center
Wed 07:15:17 AM 34.3894 -87.4653 328° Northwest 365 420 21,500 1,450 Climbing Memphis Center
Wed 07:16:17 AM 34.4744 -87.5356 326° Northwest 365 420 23,000 1,450 Climbing Memphis Center
Wed 07:17:17 AM 34.5614 -87.6031 327° Northwest 365 420 24,400 1,400 Climbing Memphis Center
Wed 07:18:17 AM 34.6464 -87.6736 326° Northwest 376 433 25,800 1,450 Climbing Memphis Center
Wed 07:19:17 AM 34.7336 -87.7417 327° Northwest 375 432 27,300 1,450 Climbing Memphis Center
Wed 07:20:17 AM 34.8183 -87.8097 327° Northwest 365 420 28,700 1,400 Climbing Memphis Center
Wed 07:21:17 AM 34.8989 -87.8758 326° Northwest 358 412 30,100 1,400 Climbing Memphis Center
Wed 07:22:17 AM 34.9839 -87.9442 327° Northwest 358 412 31,500 1,450 Climbing Memphis Center
Wed 07:23:17 AM 35.0622 -88.0131 324° Northwest 360 414 33,000 1,350 Climbing Memphis Center
Wed 07:24:17 AM 35.1364 -88.0719 327° Northwest 360 414 34,200 1,200 Climbing Memphis Center
Wed 07:25:17 AM 35.2147 -88.1383 325° Northwest 355 409 35,400 900 Climbing Memphis Center
Wed 07:26:17 AM 35.2931 -88.2025 326° Northwest 350 403 36,000 300 Climbing Memphis Center
Wed 07:27:17 AM 35.3778 -88.2714 326° Northwest 350 403 36,000  Level Memphis Center
Wed 07:28:17 AM 35.4667 -88.3431 327° Northwest 367 422 36,000  Level Memphis Center
Wed 07:29:17 AM 35.5575 -88.4200 325° Northwest 387 445 36,000  Level Memphis Center
Wed 07:30:17 AM 35.6589 -88.5019 327° Northwest 409 471 36,000  Level Memphis Center
Wed 07:31:17 AM 35.7558 -88.5817 326° Northwest 416 479 36,000  Level Memphis Center
Wed 07:32:17 AM 35.8508 -88.6617 326° Northwest 421 484 36,000  Level Memphis Center
Wed 07:33:17 AM 35.9458 -88.7417 326° Northwest 421 484 36,000  Level Memphis Center
Wed 07:34:17 AM 36.0428 -88.8244 325° Northwest 421 484 36,000  Level Memphis Center
Wed 07:35:17 AM 36.1397 -88.9075 325° Northwest 421 484 36,000  Level Memphis Center
Wed 07:36:17 AM 36.2344 -88.9856 326° Northwest 421 484 36,000  Level Memphis Center
Wed 07:37:17 AM 36.3311 -89.0639 327° Northwest 421 484 36,000  Level Memphis Center
Wed 07:38:17 AM 36.4403 -89.1522 327° Northwest 421 484 36,000  Level Memphis Center
Wed 07:39:17 AM 36.5392 -89.2411 324° Northwest 427 491 36,000  Level Memphis Center
Wed 07:40:17 AM 36.6294 -89.3253 323° Northwest 427 491 36,000  Level Memphis Center
Wed 07:41:17 AM 36.7239 -89.4069 325° Northwest 417 480 36,000  Level Memphis Center
Wed 07:42:17 AM 36.8142 -89.4861 325° Northwest 412 474 36,000  Level Memphis Center
Wed 07:44:41 AM 37.0111 -89.6536 326° Northwest 399 459 36,000  Level Kansas City Center
Wed 07:45:43 AM 37.1019 -89.7319 325° Northwest 398 458 36,000  Level Kansas City Center
Wed 07:46:43 AM 37.2133 -89.8289 325° Northwest 404 465 36,000  Level Kansas City Center
Wed 07:47:43 AM 37.3064 -89.9097 325° Northwest 408 470 36,000  Level Kansas City Center
Wed 07:48:44 AM 37.4014 -89.9911 326° Northwest 411 473 36,000  Level Kansas City Center
Wed 07:49:46 AM 37.4992 -90.0672 328° Northwest 414 476 36,000 -146 Level Kansas City Center
Wed 07:50:47 AM 37.6136 -90.0994 347° North 432 497 35,700 -492 Descending Kansas City Center
Wed 07:51:48 AM 37.7314 -90.1353 346° North 435 501 35,000 -689 Descending Kansas City Center
Wed 07:52:49 AM 37.8503 -90.1708 347° North 438 504 34,300 -496 Descending Kansas City Center
Wed 07:53:49 AM 37.9864 -90.2144 346° North 435 501 34,000 -149 Descending Kansas City Center
Wed 07:54:50 AM 38.0989 -90.2483 347° North 419 482 34,000  Level Kansas City Center
Wed 07:55:50 AM 38.2075 -90.2808 347° North 403 464 34,000  Level Kansas City Center
Wed 07:56:51 AM 38.3167 -90.3142 347° North 403 464 34,000  Level Kansas City Center
Wed 07:57:54 AM 38.4358 -90.3506 347° North 419 482 34,000  Level Kansas City Center
Wed 07:58:55 AM 38.5558 -90.3881 346° North 425 489 34,000  Level Kansas City Center
Wed 07:59:56 AM 38.6736 -90.4239 347° North 430 495 34,000  Level Kansas City Center
Wed 08:00:56 AM 38.7950 -90.4397 354° North 435 501 34,000  Level Kansas City Center
Wed 08:01:58 AM 38.9153 -90.4575 353° North 428 493 34,000  Level Kansas City Center
Wed 08:02:58 AM 39.0267 -90.5183 337° Northwest 419 482 34,000  Level Kansas City Center
Wed 08:03:59 AM 39.1328 -90.5747 338° Northwest 415 478 34,000 -492 Level Kansas City Center
Wed 08:05:00 AM 39.2411 -90.6319 338° Northwest 417 480 33,000 -1,033 Descending Kansas City Center
Wed 08:06:01 AM 39.3592 -90.6208 North 439 505 31,900 -1,091 Descending Kansas City Center
Wed 08:07:01 AM 39.4528 -90.4897 47° Northeast 485 558 30,800 -1,065 Descending Kansas City Center
Wed 08:08:05 AM 39.5661 -90.4031 31° Northeast 478 550 29,700 -1,008 Descending Kansas City Center
Wed 08:09:06 AM 39.6522 -90.2750 49° Northeast 486 559 28,700 -1,050 Descending Kansas City Center
Wed 08:10:05 AM 39.7056 -90.1083 67° East 493 567 27,600 -850 Descending Kansas City Center
Wed 08:11:06 AM 39.7694 -89.9478 63° Northeast 501 577 27,000 -293 Descending Kansas City Center
Wed 08:12:08 AM 39.8714 -89.8297 42° Northeast 496 571 27,000  Level Kansas City Center
Wed 08:13:08 AM 39.9725 -89.7136 41° Northeast 489 563 27,000  Level Kansas City Center
Wed 08:14:11 AM 40.0961 -89.5731 41° Northeast 491 565 27,000  Level Kansas City Center
Wed 08:14:31 AM 40.1167 -89.5517 39° Northeast 494 568 27,000  Level Chicago Center
Wed 08:15:32 AM 40.2314 -89.4183 42° Northeast 464 534 27,000 -146 Level Chicago Center
Wed 08:16:34 AM 40.3275 -89.3075 41° Northeast 462 532 26,700 -629 Descending Chicago Center
Wed 08:17:36 AM 40.4278 -89.1917 41° Northeast 479 551 25,700 -976 Descending Chicago Center
Wed 08:18:37 AM 40.5267 -89.0758 42° Northeast 480 552 24,700 -829 Descending Chicago Center
Wed 08:19:39 AM 40.6250 -88.9597 42° Northeast 479 551 24,000 -339 Descending Chicago Center
Wed 08:20:41 AM 40.7233 -88.8450 41° Northeast 475 547 24,000 -634 Level Chicago Center
Wed 08:21:42 AM 40.8489 -88.7342 34° Northeast 459 528 22,700 -1,805 Descending Chicago Center
Wed 08:22:44 AM 40.9694 -88.7092 North 441 507 20,300 -2,371 Descending Chicago Center
Wed 08:23:46 AM 41.0861 -88.6936 North 427 491 17,800 -2,244 Descending Chicago Center
Wed 08:24:47 AM 41.2000 -88.6775 North 415 478 15,700 -1,854 Descending Chicago Center
Wed 08:25:49 AM 41.3094 -88.6589 North 401 461 14,000 -1,742 Descending Chicago Center
Wed 08:26:51 AM 41.4061 -88.6467 North 358 412 12,100 -1,317 Descending Chicago Center
Wed 08:27:52 AM 41.4947 -88.6308 North 324 373 11,300 -537 Descending Chicago Center
Wed 08:28:54 AM 41.5736 -88.5417 40° Northeast 320 368 11,000 -774 Descending Chicago Center
Wed 08:29:56 AM 41.5931 -88.4283 77° East 315 362 9,700 -1,122 Descending Chicago Center
Wed 08:30:57 AM 41.6128 -88.3161 77° East 311 358 8,700 -829 Descending Chicago Center
Wed 08:31:59 AM 41.6644 -88.2392 48° Northeast 286 329 8,000 -871 Descending Chicago Center
Wed 08:33:01 AM 41.7211 -88.1717 42° Northeast 274 315 6,900 -1,161 Descending Chicago Center
Wed 08:34:03 AM 41.7728 -88.1122 41° Northeast 249 287 5,600 -1,171 Descending Chicago Center
Wed 08:35:04 AM 41.8133 -88.0650 41° Northeast 213 245 4,500 -927 Descending Chicago Center
Wed 08:36:06 AM 41.8517 -88.0178 43° Northeast 199 229 3,700 -1,065 Descending Chicago Center
Wed 08:37:08 AM 41.8956 -87.9683 40° Northeast 183 211 2,300 -1,128 Descending Chicago Center
Wed 08:38:03 AM 41.9167 -87.9333 51° Northeast 119 137 1,500 -716 Descending Chicago TRACON
Wed 08:38:57 AM 41.9500 -87.9167 20° North 121 139 1,000 -556 Descending Chicago TRACON
Wed 08:41:00 AM 41.9667 -87.9000 41° Northeast  Level FlightAware Approximate

Login

Don't have an account? Register now (free) for customized features, flight alerts, and more!